Marshall, TX

7:32 PM CDT on June 29, 2015 (GMT -0500)
Harrison County | | Change Station
CLOSE
Current Station
Airport
Location: Marshall,
Elevation: 358 ft
Nearby Weather Stations

Elev 358 ft 32.52 °N, 94.31 °W | Updated 17 minutes ago

Clear
Clear
83 °F
Feels Like 89 °F
N
7
Wind Variable Wind from SSW

Today
High -- | Low -- °F
--% Chance of Precip.
Yesterday
High -- | Low -- °F
Precip. -- in
6:12 AM 8:28 PM
Waxing Gibbous, 95% visible
Pressure 29.96 in
Visibility 10.0 miles
Clouds Clear
Heat Index 89 °F
Dew Point 74 °F
Humidity 75%
Rainfall 0.00 in
Snow Depth Not available.
UV 1 out of 12
Pollen 3.60 out of 12
Air Quality Not available.
Flu Activity Local Activity
METAR KASL 300015Z AUTO 21006KT 10SM CLR 28/24 A2996 RMK AO1 T02820235

More Conditions Fewer Conditions

Pressure 29.96 in
Visibility 10.0 miles
Clouds Clear
Heat Index 89 °F
Dew Point 74 °F
Humidity 75%
Rainfall 0.00 in
Snow Depth Not available.
UV 1 out of 12
Pollen 3.60 out of 12
Air Quality Not available.
Flu Activity Local Activity
METAR KASL 300015Z AUTO 21006KT 10SM CLR 28/24 A2996 RMK AO1 T02820235

More Conditions Fewer Conditions

Nowcast | as of 6:58 PM CDT on June 29, 2015

Widely scattered showers and thunderstorms...some strong in intensity producing wind gusts to near 40 mph and small hail...will continue to possible this evening along and south of the Interstate 20 corridor of northeast Texas and northern Louisiana. A cold front across southern Oklahoma and southern Arkansas could become the focus for strong to severe thunderstorms later this evening as well. Expect brief heavy downpours with the stronger storms this evening.

×

10-Day Weather Forecast

×

Almanac

Astronomy

Jun. 29, 2015 Rise Set
Actual Time
Civil Twilight
Nautical Twilight
Astronomical Twilight
Moon
Length of Visible Light
Length of Day
Tomorrow will be .
, % of the Moon is Illuminated

Today's Extremes

State Highs State Lows

Community

WunderPhotos

Upload Photos

1,833,903 photos uploaded!

WunderBlogs® & News

Nearby

Air Quality

  Air Quality AQ Index Pollutant
Not available.

Snow Depth

Station Depth Elevation

Earthquake Activity

City Distance Mag. Time & Date
Minimum magnitude displayed is 2.5.

Coastal Water Temperatures

Place Temperature

Stations

Nearby Weather Stations

Station Location Temp. Windchill Dew Point Humidity Wind Precip. Elev Updated Type